sensor_id;sensor_type;location;lat;lon;timestamp;P1;durP1;ratioP1;P2;durP2;ratioP2
50086;SDS011;35967;50.718;7.050;2023-04-25T00:06:11;14.00;;;3.73;;
50086;SDS011;35967;50.718;7.050;2023-04-25T00:16:16;11.30;;;3.20;;
50086;SDS011;35967;50.718;7.050;2023-04-25T00:26:20;11.47;;;3.50;;
50086;SDS011;35967;50.718;7.050;2023-04-25T00:36:24;12.07;;;3.07;;
50086;SDS011;35967;50.718;7.050;2023-04-25T00:46:27;9.97;;;3.40;;
50086;SDS011;35967;50.718;7.050;2023-04-25T00:56:31;11.93;;;3.00;;
50086;SDS011;35967;50.718;7.050;2023-04-25T01:06:34;10.97;;;3.40;;
50086;SDS011;35967;50.718;7.050;2023-04-25T01:16:39;10.00;;;3.50;;
50086;SDS011;35967;50.718;7.050;2023-04-25T01:26:44;20.10;;;3.57;;
50086;SDS011;35967;50.718;7.050;2023-04-25T01:36:56;14.77;;;4.00;;
50086;SDS011;35967;50.718;7.050;2023-04-25T01:47:00;12.07;;;3.70;;
50086;SDS011;35967;50.718;7.050;2023-04-25T01:57:05;13.83;;;4.17;;
50086;SDS011;35967;50.718;7.050;2023-04-25T02:07:12;11.77;;;4.60;;
50086;SDS011;35967;50.718;7.050;2023-04-25T02:17:23;16.30;;;4.37;;
50086;SDS011;35967;50.718;7.050;2023-04-25T02:27:29;15.20;;;4.03;;
50086;SDS011;35967;50.718;7.050;2023-04-25T02:37:33;16.40;;;4.37;;
50086;SDS011;35967;50.718;7.050;2023-04-25T02:47:38;17.67;;;4.33;;
50086;SDS011;35967;50.718;7.050;2023-04-25T02:57:41;14.37;;;4.30;;
50086;SDS011;35967;50.718;7.050;2023-04-25T03:07:49;14.43;;;4.03;;
50086;SDS011;35967;50.718;7.050;2023-04-25T03:17:52;14.30;;;4.67;;
50086;SDS011;35967;50.718;7.050;2023-04-25T03:27:59;14.93;;;4.70;;
50086;SDS011;35967;50.718;7.050;2023-04-25T03:38:02;16.53;;;4.53;;
50086;SDS011;35967;50.718;7.050;2023-04-25T03:48:12;22.70;;;5.00;;
50086;SDS011;35967;50.718;7.050;2023-04-25T03:58:15;19.03;;;5.10;;
50086;SDS011;35967;50.718;7.050;2023-04-25T04:08:20;13.87;;;5.10;;
50086;SDS011;35967;50.718;7.050;2023-04-25T04:18:24;22.63;;;5.13;;
50086;SDS011;35967;50.718;7.050;2023-04-25T04:28:30;23.63;;;5.70;;
50086;SDS011;35967;50.718;7.050;2023-04-25T04:38:48;12.87;;;3.53;;
50086;SDS011;35967;50.718;7.050;2023-04-25T04:49:07;26.50;;;6.47;;
50086;SDS011;35967;50.718;7.050;2023-04-25T04:59:26;28.50;;;6.53;;
50086;SDS011;35967;50.718;7.050;2023-04-25T05:10:04;20.03;;;5.20;;
50086;SDS011;35967;50.718;7.050;2023-04-25T05:20:08;21.67;;;5.57;;
50086;SDS011;35967;50.718;7.050;2023-04-25T05:30:39;16.47;;;5.03;;
50086;SDS011;35967;50.718;7.050;2023-04-25T05:40:48;27.70;;;5.60;;
50086;SDS011;35967;50.718;7.050;2023-04-25T05:51:08;23.57;;;6.33;;
50086;SDS011;35967;50.718;7.050;2023-04-25T06:01:21;27.73;;;4.63;;
50086;SDS011;35967;50.718;7.050;2023-04-25T06:11:27;24.60;;;5.40;;
50086;SDS011;35967;50.718;7.050;2023-04-25T06:21:30;31.20;;;6.77;;
50086;SDS011;35967;50.718;7.050;2023-04-25T06:31:36;24.10;;;4.33;;
50086;SDS011;35967;50.718;7.050;2023-04-25T06:41:39;25.90;;;4.63;;
50086;SDS011;35967;50.718;7.050;2023-04-25T06:51:50;22.17;;;4.80;;
50086;SDS011;35967;50.718;7.050;2023-04-25T07:01:55;25.40;;;3.40;;
50086;SDS011;35967;50.718;7.050;2023-04-25T07:12:01;17.47;;;4.20;;
50086;SDS011;35967;50.718;7.050;2023-04-25T07:22:05;17.00;;;3.37;;
50086;SDS011;35967;50.718;7.050;2023-04-25T07:32:12;18.90;;;3.83;;
50086;SDS011;35967;50.718;7.050;2023-04-25T07:42:16;20.93;;;3.67;;
50086;SDS011;35967;50.718;7.050;2023-04-25T07:52:21;16.90;;;3.53;;
50086;SDS011;35967;50.718;7.050;2023-04-25T08:02:31;12.27;;;2.87;;
50086;SDS011;35967;50.718;7.050;2023-04-25T08:12:36;23.67;;;3.40;;
50086;SDS011;35967;50.718;7.050;2023-04-25T08:22:42;16.93;;;2.53;;
50086;SDS011;35967;50.718;7.050;2023-04-25T08:33:01;13.15;;;2.38;;
50086;SDS011;35967;50.718;7.050;2023-04-25T08:43:23;13.80;;;2.40;;
50086;SDS011;35967;50.718;7.050;2023-04-25T08:53:29;16.47;;;2.33;;
50086;SDS011;35967;50.718;7.050;2023-04-25T09:03:38;12.63;;;2.00;;
50086;SDS011;35967;50.718;7.050;2023-04-25T09:13:44;12.73;;;2.87;;
50086;SDS011;35967;50.718;7.050;2023-04-25T09:24:11;7.10;;;1.27;;
50086;SDS011;35967;50.718;7.050;2023-04-25T09:34:16;13.27;;;2.20;;
50086;SDS011;35967;50.718;7.050;2023-04-25T09:44:27;22.70;;;2.30;;
50086;SDS011;35967;50.718;7.050;2023-04-25T09:54:33;13.70;;;2.67;;
50086;SDS011;35967;50.718;7.050;2023-04-25T10:04:42;15.03;;;1.77;;
50086;SDS011;35967;50.718;7.050;2023-04-25T10:14:56;10.47;;;1.60;;
50086;SDS011;35967;50.718;7.050;2023-04-25T10:25:01;11.17;;;1.10;;
50086;SDS011;35967;50.718;7.050;2023-04-25T10:35:14;9.83;;;1.20;;
50086;SDS011;35967;50.718;7.050;2023-04-25T10:45:18;9.37;;;1.50;;
50086;SDS011;35967;50.718;7.050;2023-04-25T10:55:23;9.67;;;1.30;;
50086;SDS011;35967;50.718;7.050;2023-04-25T11:05:29;14.17;;;1.30;;
50086;SDS011;35967;50.718;7.050;2023-04-25T11:15:42;12.53;;;2.87;;
50086;SDS011;35967;50.718;7.050;2023-04-25T11:25:46;13.70;;;2.17;;
50086;SDS011;35967;50.718;7.050;2023-04-25T11:35:51;12.90;;;1.60;;
50086;SDS011;35967;50.718;7.050;2023-04-25T11:45:56;13.87;;;2.10;;
50086;SDS011;35967;50.718;7.050;2023-04-25T11:56:01;9.67;;;1.40;;
50086;SDS011;35967;50.718;7.050;2023-04-25T12:06:11;8.40;;;1.30;;
50086;SDS011;35967;50.718;7.050;2023-04-25T12:16:21;12.00;;;1.47;;
50086;SDS011;35967;50.718;7.050;2023-04-25T12:26:24;7.83;;;1.17;;
50086;SDS011;35967;50.718;7.050;2023-04-25T12:36:28;13.17;;;1.63;;
50086;SDS011;35967;50.718;7.050;2023-04-25T12:46:32;6.33;;;1.20;;
50086;SDS011;35967;50.718;7.050;2023-04-25T12:56:37;8.30;;;1.53;;
50086;SDS011;35967;50.718;7.050;2023-04-25T13:06:40;6.40;;;1.20;;
50086;SDS011;35967;50.718;7.050;2023-04-25T13:16:45;6.83;;;1.23;;
50086;SDS011;35967;50.718;7.050;2023-04-25T13:26:48;6.37;;;1.10;;
50086;SDS011;35967;50.718;7.050;2023-04-25T13:36:52;12.63;;;1.63;;
50086;SDS011;35967;50.718;7.050;2023-04-25T13:46:56;11.07;;;1.10;;
50086;SDS011;35967;50.718;7.050;2023-04-25T13:57:01;6.23;;;0.80;;
50086;SDS011;35967;50.718;7.050;2023-04-25T14:07:04;9.43;;;1.10;;
50086;SDS011;35967;50.718;7.050;2023-04-25T14:17:09;11.90;;;1.60;;
50086;SDS011;35967;50.718;7.050;2023-04-25T14:27:12;7.07;;;1.17;;
50086;SDS011;35967;50.718;7.050;2023-04-25T14:37:17;7.97;;;1.30;;
50086;SDS011;35967;50.718;7.050;2023-04-25T14:47:21;4.40;;;1.20;;
50086;SDS011;35967;50.718;7.050;2023-04-25T14:57:25;4.90;;;1.10;;
50086;SDS011;35967;50.718;7.050;2023-04-25T15:07:28;5.63;;;1.17;;
50086;SDS011;35967;50.718;7.050;2023-04-25T15:17:33;3.93;;;0.60;;
50086;SDS011;35967;50.718;7.050;2023-04-25T15:27:36;7.00;;;0.50;;
50086;SDS011;35967;50.718;7.050;2023-04-25T15:37:44;5.70;;;0.73;;
50086;SDS011;35967;50.718;7.050;2023-04-25T15:47:48;6.77;;;0.70;;
50086;SDS011;35967;50.718;7.050;2023-04-25T15:57:54;4.93;;;0.80;;
50086;SDS011;35967;50.718;7.050;2023-04-25T16:07:57;7.20;;;1.10;;
50086;SDS011;35967;50.718;7.050;2023-04-25T16:18:02;7.60;;;1.00;;
50086;SDS011;35967;50.718;7.050;2023-04-25T16:28:06;8.83;;;1.30;;
50086;SDS011;35967;50.718;7.050;2023-04-25T16:38:10;6.20;;;1.23;;
50086;SDS011;35967;50.718;7.050;2023-04-25T16:48:14;4.37;;;0.80;;
50086;SDS011;35967;50.718;7.050;2023-04-25T16:58:21;7.13;;;0.90;;
50086;SDS011;35967;50.718;7.050;2023-04-25T17:08:25;11.17;;;1.10;;
50086;SDS011;35967;50.718;7.050;2023-04-25T17:18:30;3.83;;;0.80;;
50086;SDS011;35967;50.718;7.050;2023-04-25T17:28:34;5.97;;;1.10;;
50086;SDS011;35967;50.718;7.050;2023-04-25T17:38:38;5.00;;;0.90;;
50086;SDS011;35967;50.718;7.050;2023-04-25T17:48:41;5.53;;;1.00;;
50086;SDS011;35967;50.718;7.050;2023-04-25T17:58:46;6.57;;;0.83;;
50086;SDS011;35967;50.718;7.050;2023-04-25T18:08:49;8.80;;;0.90;;
50086;SDS011;35967;50.718;7.050;2023-04-25T18:18:54;4.73;;;1.13;;
50086;SDS011;35967;50.718;7.050;2023-04-25T18:29:05;5.47;;;0.80;;
50086;SDS011;35967;50.718;7.050;2023-04-25T18:39:09;4.37;;;0.90;;
50086;SDS011;35967;50.718;7.050;2023-04-25T18:49:22;6.67;;;0.87;;
50086;SDS011;35967;50.718;7.050;2023-04-25T18:59:27;6.27;;;1.00;;
50086;SDS011;35967;50.718;7.050;2023-04-25T19:09:29;8.70;;;1.00;;
50086;SDS011;35967;50.718;7.050;2023-04-25T19:19:34;7.20;;;1.80;;
50086;SDS011;35967;50.718;7.050;2023-04-25T19:29:37;10.47;;;1.40;;
50086;SDS011;35967;50.718;7.050;2023-04-25T19:39:46;6.50;;;1.70;;
50086;SDS011;35967;50.718;7.050;2023-04-25T19:49:50;4.33;;;1.03;;
50086;SDS011;35967;50.718;7.050;2023-04-25T19:59:54;5.70;;;1.50;;
50086;SDS011;35967;50.718;7.050;2023-04-25T20:09:57;6.83;;;1.57;;
50086;SDS011;35967;50.718;7.050;2023-04-25T20:20:04;7.20;;;1.43;;
50086;SDS011;35967;50.718;7.050;2023-04-25T20:30:08;6.40;;;1.20;;
50086;SDS011;35967;50.718;7.050;2023-04-25T20:40:14;6.17;;;1.20;;
50086;SDS011;35967;50.718;7.050;2023-04-25T20:50:18;7.90;;;1.60;;
50086;SDS011;35967;50.718;7.050;2023-04-25T21:00:22;4.53;;;1.27;;
50086;SDS011;35967;50.718;7.050;2023-04-25T21:10:30;4.60;;;1.27;;
50086;SDS011;35967;50.718;7.050;2023-04-25T21:20:35;10.73;;;1.30;;
50086;SDS011;35967;50.718;7.050;2023-04-25T21:30:38;7.60;;;1.60;;
50086;SDS011;35967;50.718;7.050;2023-04-25T21:40:42;6.13;;;1.50;;
50086;SDS011;35967;50.718;7.050;2023-04-25T21:50:45;10.37;;;1.47;;
50086;SDS011;35967;50.718;7.050;2023-04-25T22:00:49;4.67;;;1.17;;
50086;SDS011;35967;50.718;7.050;2023-04-25T22:10:53;12.03;;;2.00;;
50086;SDS011;35967;50.718;7.050;2023-04-25T22:20:58;10.27;;;1.30;;
50086;SDS011;35967;50.718;7.050;2023-04-25T22:31:01;6.63;;;1.40;;
50086;SDS011;35967;50.718;7.050;2023-04-25T22:41:05;8.47;;;1.40;;
50086;SDS011;35967;50.718;7.050;2023-04-25T22:51:09;10.43;;;1.53;;
50086;SDS011;35967;50.718;7.050;2023-04-25T23:01:14;12.53;;;2.20;;
50086;SDS011;35967;50.718;7.050;2023-04-25T23:11:19;13.40;;;4.83;;
50086;SDS011;35967;50.718;7.050;2023-04-25T23:21:25;13.63;;;1.63;;
50086;SDS011;35967;50.718;7.050;2023-04-25T23:31:29;10.70;;;1.60;;
50086;SDS011;35967;50.718;7.050;2023-04-25T23:41:33;7.70;;;1.33;;
50086;SDS011;35967;50.718;7.050;2023-04-25T23:51:36;5.27;;;1.23;;
